sensor_id;sensor_type;location;lat;lon;timestamp;pressure;altitude;pressure_sealevel;temperature;humidity
55916;BME280;41826;53.246;-6.670;2022-09-17T00:02:20;101727.94;;;7.65;100.00
55916;BME280;41826;53.246;-6.670;2022-09-17T00:04:47;101738.47;;;7.90;100.00
55916;BME280;41826;53.246;-6.670;2022-09-17T00:07:14;101732.38;;;7.90;100.00
55916;BME280;41826;53.246;-6.670;2022-09-17T00:09:40;101731.94;;;8.10;100.00
55916;BME280;41826;53.246;-6.670;2022-09-17T00:12:05;101726.25;;;8.56;100.00
55916;BME280;41826;53.246;-6.670;2022-09-17T00:14:30;101715.22;;;8.89;100.00
55916;BME280;41826;53.246;-6.670;2022-09-17T00:16:56;101717.47;;;9.07;100.00
55916;BME280;41826;53.246;-6.670;2022-09-17T00:19:22;101708.34;;;9.13;100.00
55916;BME280;41826;53.246;-6.670;2022-09-17T00:21:47;101705.13;;;8.96;100.00
55916;BME280;41826;53.246;-6.670;2022-09-17T00:24:15;101699.91;;;8.32;100.00
55916;BME280;41826;53.246;-6.670;2022-09-17T00:26:41;101697.63;;;8.53;100.00
55916;BME280;41826;53.246;-6.670;2022-09-17T00:29:07;101695.94;;;8.78;100.00
55916;BME280;41826;53.246;-6.670;2022-09-17T00:31:34;101692.22;;;9.06;100.00
55916;BME280;41826;53.246;-6.670;2022-09-17T00:34:00;101695.19;;;9.25;100.00
55916;BME280;41826;53.246;-6.670;2022-09-17T00:36:26;101689.97;;;9.25;100.00
55916;BME280;41826;53.246;-6.670;2022-09-17T00:38:54;101697.53;;;9.41;100.00
55916;BME280;41826;53.246;-6.670;2022-09-17T00:41:21;101691.94;;;9.35;100.00
55916;BME280;41826;53.246;-6.670;2022-09-17T00:43:49;101698.47;;;8.66;100.00
55916;BME280;41826;53.246;-6.670;2022-09-17T00:48:47;101714.44;;;7.98;100.00
55916;BME280;41826;53.246;-6.670;2022-09-17T00:51:16;101727.03;;;7.78;100.00
55916;BME280;41826;53.246;-6.670;2022-09-17T00:53:42;101723.81;;;7.60;100.00
55916;BME280;41826;53.246;-6.670;2022-09-17T00:56:19;101731.75;;;7.59;100.00
55916;BME280;41826;53.246;-6.670;2022-09-17T00:58:48;101729.78;;;7.35;100.00
55916;BME280;41826;53.246;-6.670;2022-09-17T01:01:14;101733.69;;;7.43;100.00
55916;BME280;41826;53.246;-6.670;2022-09-17T01:03:40;101730.84;;;7.19;100.00
55916;BME280;41826;53.246;-6.670;2022-09-17T01:06:15;101732.38;;;7.35;100.00
55916;BME280;41826;53.246;-6.670;2022-09-17T01:08:51;101731.69;;;7.19;100.00
55916;BME280;41826;53.246;-6.670;2022-09-17T01:17:18;101741.31;;;6.90;100.00
55916;BME280;41826;53.246;-6.670;2022-09-17T01:31:41;101721.34;;;7.18;100.00
55916;BME280;41826;53.246;-6.670;2022-09-17T01:34:53;101722.91;;;7.20;100.00
55916;BME280;41826;53.246;-6.670;2022-09-17T01:40:12;101724.03;;;7.16;100.00
55916;BME280;41826;53.246;-6.670;2022-09-17T01:45:36;101703.66;;;7.35;100.00
55916;BME280;41826;53.246;-6.670;2022-09-17T01:48:07;101701.94;;;7.49;100.00
55916;BME280;41826;53.246;-6.670;2022-09-17T01:50:39;101707.09;;;7.36;100.00
55916;BME280;41826;53.246;-6.670;2022-09-17T01:53:06;101718.44;;;7.22;100.00
55916;BME280;41826;53.246;-6.670;2022-09-17T01:55:36;101723.31;;;6.85;100.00
55916;BME280;41826;53.246;-6.670;2022-09-17T01:58:32;101727.31;;;6.62;100.00
55916;BME280;41826;53.246;-6.670;2022-09-17T02:01:02;101719.84;;;6.42;100.00
55916;BME280;41826;53.246;-6.670;2022-09-17T02:03:42;101716.03;;;6.47;100.00
55916;BME280;41826;53.246;-6.670;2022-09-17T02:06:14;101722.16;;;6.32;100.00
55916;BME280;41826;53.246;-6.670;2022-09-17T02:08:49;101722.06;;;6.19;100.00
55916;BME280;41826;53.246;-6.670;2022-09-17T02:11:17;101721.56;;;6.13;100.00
55916;BME280;41826;53.246;-6.670;2022-09-17T02:13:46;101725.06;;;6.42;100.00
55916;BME280;41826;53.246;-6.670;2022-09-17T02:16:26;101718.75;;;6.46;100.00
55916;BME280;41826;53.246;-6.670;2022-09-17T02:19:04;101712.88;;;6.28;100.00
55916;BME280;41826;53.246;-6.670;2022-09-17T02:24:25;101715.53;;;5.66;100.00
55916;BME280;41826;53.246;-6.670;2022-09-17T02:27:00;101721.91;;;6.37;100.00
55916;BME280;41826;53.246;-6.670;2022-09-17T02:29:40;101726.09;;;6.39;100.00
55916;BME280;41826;53.246;-6.670;2022-09-17T02:32:07;101731.69;;;7.19;100.00
55916;BME280;41826;53.246;-6.670;2022-09-17T02:34:33;101718.31;;;7.24;100.00
55916;BME280;41826;53.246;-6.670;2022-09-17T02:36:59;101715.75;;;7.09;100.00
55916;BME280;41826;53.246;-6.670;2022-09-17T02:39:25;101715.81;;;7.22;100.00
55916;BME280;41826;53.246;-6.670;2022-09-17T02:44:59;101707.13;;;7.63;100.00
55916;BME280;41826;53.246;-6.670;2022-09-17T02:50:20;101705.56;;;7.46;100.00
55916;BME280;41826;53.246;-6.670;2022-09-17T02:53:08;101711.03;;;7.29;100.00
55916;BME280;41826;53.246;-6.670;2022-09-17T02:55:48;101712.47;;;7.06;100.00
55916;BME280;41826;53.246;-6.670;2022-09-17T03:00:47;101706.00;;;6.84;100.00
55916;BME280;41826;53.246;-6.670;2022-09-17T03:03:18;101706.34;;;6.78;100.00
55916;BME280;41826;53.246;-6.670;2022-09-17T03:05:46;101699.94;;;6.69;100.00
55916;BME280;41826;53.246;-6.670;2022-09-17T03:08:13;101702.09;;;6.48;100.00
55916;BME280;41826;53.246;-6.670;2022-09-17T03:10:39;101705.25;;;6.68;100.00
55916;BME280;41826;53.246;-6.670;2022-09-17T03:13:05;101696.97;;;6.61;100.00
55916;BME280;41826;53.246;-6.670;2022-09-17T03:15:31;101696.22;;;6.73;100.00
55916;BME280;41826;53.246;-6.670;2022-09-17T03:17:56;101695.09;;;6.78;100.00
55916;BME280;41826;53.246;-6.670;2022-09-17T03:20:22;101690.34;;;6.84;100.00
55916;BME280;41826;53.246;-6.670;2022-09-17T03:22:47;101686.56;;;7.03;100.00
55916;BME280;41826;53.246;-6.670;2022-09-17T03:25:13;101675.44;;;6.86;100.00
55916;BME280;41826;53.246;-6.670;2022-09-17T03:27:38;101675.88;;;6.50;100.00
55916;BME280;41826;53.246;-6.670;2022-09-17T03:30:04;101678.59;;;6.63;100.00
55916;BME280;41826;53.246;-6.670;2022-09-17T03:32:31;101682.09;;;6.90;100.00
55916;BME280;41826;53.246;-6.670;2022-09-17T03:34:56;101686.28;;;7.07;100.00
55916;BME280;41826;53.246;-6.670;2022-09-17T03:37:22;101688.63;;;7.12;100.00
55916;BME280;41826;53.246;-6.670;2022-09-17T03:39:47;101687.13;;;6.93;100.00
55916;BME280;41826;53.246;-6.670;2022-09-17T03:42:12;101692.81;;;6.86;100.00
55916;BME280;41826;53.246;-6.670;2022-09-17T03:44:38;101704.75;;;6.18;100.00
55916;BME280;41826;53.246;-6.670;2022-09-17T03:47:03;101708.72;;;6.10;100.00
55916;BME280;41826;53.246;-6.670;2022-09-17T03:49:29;101707.69;;;6.12;100.00
55916;BME280;41826;53.246;-6.670;2022-09-17T03:51:54;101708.13;;;6.04;100.00
55916;BME280;41826;53.246;-6.670;2022-09-17T03:54:19;101714.97;;;5.91;100.00
55916;BME280;41826;53.246;-6.670;2022-09-17T03:56:45;101714.28;;;6.03;100.00
55916;BME280;41826;53.246;-6.670;2022-09-17T03:59:10;101704.25;;;6.12;100.00
55916;BME280;41826;53.246;-6.670;2022-09-17T04:01:36;101712.31;;;6.23;100.00
55916;BME280;41826;53.246;-6.670;2022-09-17T04:04:02;101714.22;;;6.19;100.00
55916;BME280;41826;53.246;-6.670;2022-09-17T04:06:27;101706.41;;;6.19;100.00
55916;BME280;41826;53.246;-6.670;2022-09-17T04:08:53;101709.47;;;6.12;100.00
55916;BME280;41826;53.246;-6.670;2022-09-17T04:11:18;101707.56;;;5.99;100.00
55916;BME280;41826;53.246;-6.670;2022-09-17T04:13:44;101699.13;;;6.10;100.00
55916;BME280;41826;53.246;-6.670;2022-09-17T04:16:09;101703.94;;;6.02;100.00
55916;BME280;41826;53.246;-6.670;2022-09-17T04:18:35;101699.78;;;6.14;100.00
55916;BME280;41826;53.246;-6.670;2022-09-17T04:21:00;101694.19;;;6.20;100.00
55916;BME280;41826;53.246;-6.670;2022-09-17T04:23:26;101704.44;;;6.08;100.00
55916;BME280;41826;53.246;-6.670;2022-09-17T04:25:51;101701.94;;;5.91;100.00
55916;BME280;41826;53.246;-6.670;2022-09-17T04:28:16;101706.94;;;5.80;100.00
55916;BME280;41826;53.246;-6.670;2022-09-17T04:30:42;101705.03;;;5.68;100.00
55916;BME280;41826;53.246;-6.670;2022-09-17T04:33:08;101706.69;;;5.69;100.00
55916;BME280;41826;53.246;-6.670;2022-09-17T04:35:33;101708.28;;;5.71;100.00
55916;BME280;41826;53.246;-6.670;2022-09-17T04:37:59;101708.28;;;5.71;100.00
55916;BME280;41826;53.246;-6.670;2022-09-17T04:40:25;101715.25;;;5.71;100.00
55916;BME280;41826;53.246;-6.670;2022-09-17T04:42:55;101714.50;;;5.69;100.00
55916;BME280;41826;53.246;-6.670;2022-09-17T04:45:22;101715.19;;;5.72;100.00
55916;BME280;41826;53.246;-6.670;2022-09-17T04:47:47;101722.31;;;5.69;100.00
55916;BME280;41826;53.246;-6.670;2022-09-17T04:50:16;101725.09;;;5.65;100.00
55916;BME280;41826;53.246;-6.670;2022-09-17T04:52:42;101718.88;;;5.68;100.00
55916;BME280;41826;53.246;-6.670;2022-09-17T04:55:08;101717.94;;;5.69;100.00
55916;BME280;41826;53.246;-6.670;2022-09-17T04:57:34;101726.72;;;5.52;100.00
55916;BME280;41826;53.246;-6.670;2022-09-17T04:59:59;101731.84;;;5.38;100.00
55916;BME280;41826;53.246;-6.670;2022-09-17T05:02:25;101723.50;;;5.31;100.00
55916;BME280;41826;53.246;-6.670;2022-09-17T05:04:50;101726.81;;;5.35;100.00
55916;BME280;41826;53.246;-6.670;2022-09-17T05:07:15;101720.91;;;5.31;100.00
55916;BME280;41826;53.246;-6.670;2022-09-17T05:09:41;101717.41;;;5.32;100.00
55916;BME280;41826;53.246;-6.670;2022-09-17T05:12:07;101720.75;;;5.18;100.00
55916;BME280;41826;53.246;-6.670;2022-09-17T05:14:32;101720.91;;;5.15;100.00
55916;BME280;41826;53.246;-6.670;2022-09-17T05:16:57;101718.59;;;5.27;100.00
55916;BME280;41826;53.246;-6.670;2022-09-17T05:19:23;101716.28;;;5.36;100.00
55916;BME280;41826;53.246;-6.670;2022-09-17T05:21:48;101709.84;;;5.28;100.00
55916;BME280;41826;53.246;-6.670;2022-09-17T05:24:13;101707.56;;;5.21;100.00
55916;BME280;41826;53.246;-6.670;2022-09-17T05:26:39;101707.31;;;5.10;100.00
55916;BME280;41826;53.246;-6.670;2022-09-17T05:29:04;101716.97;;;4.59;100.00
55916;BME280;41826;53.246;-6.670;2022-09-17T05:31:30;101726.56;;;4.74;100.00
55916;BME280;41826;53.246;-6.670;2022-09-17T05:33:57;101733.22;;;4.80;100.00
55916;BME280;41826;53.246;-6.670;2022-09-17T05:36:22;101732.84;;;4.70;100.00
55916;BME280;41826;53.246;-6.670;2022-09-17T05:38:48;101732.06;;;4.68;100.00
55916;BME280;41826;53.246;-6.670;2022-09-17T05:41:13;101735.38;;;4.72;100.00
55916;BME280;41826;53.246;-6.670;2022-09-17T05:43:38;101727.03;;;4.65;100.00
55916;BME280;41826;53.246;-6.670;2022-09-17T05:46:04;101741.75;;;4.66;100.00
55916;BME280;41826;53.246;-6.670;2022-09-17T05:48:30;101733.59;;;4.72;100.00
55916;BME280;41826;53.246;-6.670;2022-09-17T05:50:56;101725.03;;;4.70;100.00
55916;BME280;41826;53.246;-6.670;2022-09-17T05:53:22;101725.94;;;4.87;100.00
55916;BME280;41826;53.246;-6.670;2022-09-17T05:55:47;101724.94;;;5.05;100.00
55916;BME280;41826;53.246;-6.670;2022-09-17T05:58:15;101715.72;;;5.15;100.00
55916;BME280;41826;53.246;-6.670;2022-09-17T06:00:41;101713.94;;;5.00;100.00
55916;BME280;41826;53.246;-6.670;2022-09-17T06:03:11;101716.53;;;5.00;100.00
55916;BME280;41826;53.246;-6.670;2022-09-17T06:05:37;101722.22;;;4.91;100.00
55916;BME280;41826;53.246;-6.670;2022-09-17T06:08:03;101726.84;;;4.86;100.00
55916;BME280;41826;53.246;-6.670;2022-09-17T06:10:29;101725.94;;;4.87;100.00
55916;BME280;41826;53.246;-6.670;2022-09-17T06:12:58;101726.53;;;4.92;100.00
55916;BME280;41826;53.246;-6.670;2022-09-17T06:15:25;101722.50;;;5.02;100.00
55916;BME280;41826;53.246;-6.670;2022-09-17T06:17:51;101710.34;;;5.03;100.00
55916;BME280;41826;53.246;-6.670;2022-09-17T06:20:17;101717.38;;;5.00;100.00
55916;BME280;41826;53.246;-6.670;2022-09-17T06:22:42;101721.72;;;4.84;100.00
55916;BME280;41826;53.246;-6.670;2022-09-17T06:25:08;101734.13;;;4.79;100.00
55916;BME280;41826;53.246;-6.670;2022-09-17T06:27:34;101733.31;;;4.94;100.00
55916;BME280;41826;53.246;-6.670;2022-09-17T06:30:00;101737.44;;;4.98;100.00
55916;BME280;41826;53.246;-6.670;2022-09-17T06:32:27;101738.03;;;5.04;100.00
55916;BME280;41826;53.246;-6.670;2022-09-17T06:34:53;101726.97;;;5.16;100.00
55916;BME280;41826;53.246;-6.670;2022-09-17T06:37:20;101729.00;;;5.42;100.00
55916;BME280;41826;53.246;-6.670;2022-09-17T06:39:45;101732.66;;;5.54;100.00
55916;BME280;41826;53.246;-6.670;2022-09-17T06:42:11;101732.00;;;5.51;100.00
55916;BME280;41826;53.246;-6.670;2022-09-17T06:44:36;101732.84;;;5.51;100.00
55916;BME280;41826;53.246;-6.670;2022-09-17T06:47:02;101732.66;;;5.70;100.00
55916;BME280;41826;53.246;-6.670;2022-09-17T06:49:28;101731.97;;;5.82;100.00
55916;BME280;41826;53.246;-6.670;2022-09-17T06:51:55;101735.03;;;6.05;100.00
55916;BME280;41826;53.246;-6.670;2022-09-17T06:54:20;101736.94;;;6.17;100.00
55916;BME280;41826;53.246;-6.670;2022-09-17T06:56:46;101738.38;;;6.37;100.00
55916;BME280;41826;53.246;-6.670;2022-09-17T06:59:11;101737.38;;;6.54;100.00
55916;BME280;41826;53.246;-6.670;2022-09-17T07:01:38;101746.13;;;6.53;100.00
55916;BME280;41826;53.246;-6.670;2022-09-17T07:04:03;101752.03;;;6.57;100.00
55916;BME280;41826;53.246;-6.670;2022-09-17T07:06:29;101766.19;;;6.67;100.00
55916;BME280;41826;53.246;-6.670;2022-09-17T07:08:54;101752.22;;;6.82;100.00
55916;BME280;41826;53.246;-6.670;2022-09-17T07:11:20;101750.34;;;6.99;100.00
55916;BME280;41826;53.246;-6.670;2022-09-17T07:13:45;101743.19;;;7.02;100.00
55916;BME280;41826;53.246;-6.670;2022-09-17T07:16:10;101742.97;;;7.20;100.00
55916;BME280;41826;53.246;-6.670;2022-09-17T07:18:36;101744.91;;;7.30;100.00
55916;BME280;41826;53.246;-6.670;2022-09-17T07:21:04;101742.28;;;7.45;100.00
55916;BME280;41826;53.246;-6.670;2022-09-17T07:23:31;101748.22;;;7.74;100.00
55916;BME280;41826;53.246;-6.670;2022-09-17T07:25:59;101752.22;;;7.79;100.00
55916;BME280;41826;53.246;-6.670;2022-09-17T07:28:25;101748.59;;;7.95;100.00
55916;BME280;41826;53.246;-6.670;2022-09-17T07:30:51;101745.84;;;8.11;100.00
55916;BME280;41826;53.246;-6.670;2022-09-17T07:33:20;101751.72;;;8.27;100.00
55916;BME280;41826;53.246;-6.670;2022-09-17T07:35:57;101746.13;;;8.46;100.00
55916;BME280;41826;53.246;-6.670;2022-09-17T07:38:23;101741.09;;;8.68;100.00
55916;BME280;41826;53.246;-6.670;2022-09-17T07:41:10;101742.75;;;8.70;100.00
55916;BME280;41826;53.246;-6.670;2022-09-17T07:43:40;101741.06;;;8.94;100.00
55916;BME280;41826;53.246;-6.670;2022-09-17T07:46:06;101743.13;;;9.15;100.00
55916;BME280;41826;53.246;-6.670;2022-09-17T07:48:33;101739.81;;;9.37;100.00
55916;BME280;41826;53.246;-6.670;2022-09-17T07:50:59;101737.13;;;9.49;100.00
55916;BME280;41826;53.246;-6.670;2022-09-17T07:53:25;101745.47;;;9.67;100.00
55916;BME280;41826;53.246;-6.670;2022-09-17T07:55:55;101745.56;;;9.66;100.00
55916;BME280;41826;53.246;-6.670;2022-09-17T07:58:21;101750.03;;;9.76;100.00
55916;BME280;41826;53.246;-6.670;2022-09-17T08:00:47;101742.56;;;9.83;100.00
55916;BME280;41826;53.246;-6.670;2022-09-17T08:03:14;101744.66;;;10.02;100.00
55916;BME280;41826;53.246;-6.670;2022-09-17T08:05:39;101744.06;;;9.98;100.00
55916;BME280;41826;53.246;-6.670;2022-09-17T08:08:05;101728.13;;;10.24;100.00
55916;BME280;41826;53.246;-6.670;2022-09-17T08:10:30;101738.19;;;10.30;100.00
55916;BME280;41826;53.246;-6.670;2022-09-17T08:12:56;101748.97;;;10.38;100.00
55916;BME280;41826;53.246;-6.670;2022-09-17T08:15:23;101751.16;;;10.67;100.00
55916;BME280;41826;53.246;-6.670;2022-09-17T08:17:49;101758.16;;;10.44;100.00
55916;BME280;41826;53.246;-6.670;2022-09-17T08:20:15;101750.78;;;10.83;100.00
55916;BME280;41826;53.246;-6.670;2022-09-17T08:22:41;101764.63;;;10.62;100.00
55916;BME280;41826;53.246;-6.670;2022-09-17T08:25:07;101763.06;;;10.49;100.00
55916;BME280;41826;53.246;-6.670;2022-09-17T08:27:33;101777.28;;;10.22;100.00
55916;BME280;41826;53.246;-6.670;2022-09-17T08:29:58;101774.03;;;10.43;100.00
55916;BME280;41826;53.246;-6.670;2022-09-17T08:32:24;101778.88;;;10.71;100.00
55916;BME280;41826;53.246;-6.670;2022-09-17T08:34:50;101764.53;;;10.75;100.00
55916;BME280;41826;53.246;-6.670;2022-09-17T08:37:18;101764.28;;;10.78;100.00
55916;BME280;41826;53.246;-6.670;2022-09-17T08:39:44;101753.78;;;10.90;100.00
55916;BME280;41826;53.246;-6.670;2022-09-17T08:42:22;101756.78;;;10.96;100.00
55916;BME280;41826;53.246;-6.670;2022-09-17T08:44:50;101757.75;;;11.06;100.00
55916;BME280;41826;53.246;-6.670;2022-09-17T08:47:33;101766.19;;;11.21;100.00
55916;BME280;41826;53.246;-6.670;2022-09-17T08:50:03;101768.94;;;11.20;100.00
55916;BME280;41826;53.246;-6.670;2022-09-17T08:52:55;101761.91;;;10.98;100.00
55916;BME280;41826;53.246;-6.670;2022-09-17T08:55:39;101779.34;;;10.88;100.00
55916;BME280;41826;53.246;-6.670;2022-09-17T09:01:31;101775.38;;;11.16;100.00
55916;BME280;41826;53.246;-6.670;2022-09-17T09:06:43;101776.19;;;11.39;100.00
55916;BME280;41826;53.246;-6.670;2022-09-17T09:09:15;101776.28;;;11.60;100.00
55916;BME280;41826;53.246;-6.670;2022-09-17T09:11:42;101777.69;;;11.64;100.00
55916;BME280;41826;53.246;-6.670;2022-09-17T09:14:32;101767.63;;;11.80;100.00
55916;BME280;41826;53.246;-6.670;2022-09-17T09:17:05;101763.66;;;11.86;100.00
55916;BME280;41826;53.246;-6.670;2022-09-17T09:19:41;101771.34;;;11.66;100.00
55916;BME280;41826;53.246;-6.670;2022-09-17T09:22:48;101778.25;;;11.90;100.00
55916;BME280;41826;53.246;-6.670;2022-09-17T09:25:24;101768.56;;;11.90;100.00
55916;BME280;41826;53.246;-6.670;2022-09-17T09:28:14;101774.31;;;12.17;100.00
55916;BME280;41826;53.246;-6.670;2022-09-17T09:33:17;101780.63;;;12.46;100.00
55916;BME280;41826;53.246;-6.670;2022-09-17T09:35:45;101778.88;;;12.56;100.00
55916;BME280;41826;53.246;-6.670;2022-09-17T09:41:24;101768.13;;;12.06;100.00
55916;BME280;41826;53.246;-6.670;2022-09-17T09:44:03;101771.47;;;12.50;100.00
55916;BME280;41826;53.246;-6.670;2022-09-17T09:50:19;101770.78;;;12.27;100.00
55916;BME280;41826;53.246;-6.670;2022-09-17T09:57:45;101770.75;;;12.69;100.00
55916;BME280;41826;53.246;-6.670;2022-09-17T10:00:36;101766.31;;;12.70;100.00
55916;BME280;41826;53.246;-6.670;2022-09-17T10:05:34;101765.94;;;13.46;100.00
55916;BME280;41826;53.246;-6.670;2022-09-17T10:08:10;101757.44;;;13.32;100.00
55916;BME280;41826;53.246;-6.670;2022-09-17T10:10:52;101765.22;;;13.43;100.00
55916;BME280;41826;53.246;-6.670;2022-09-17T10:13:19;101768.06;;;13.81;100.00
55916;BME280;41826;53.246;-6.670;2022-09-17T10:15:44;101765.78;;;13.37;100.00
55916;BME280;41826;53.246;-6.670;2022-09-17T10:18:21;101769.72;;;13.22;100.00
55916;BME280;41826;53.246;-6.670;2022-09-17T10:20:58;101756.06;;;13.38;100.00
55916;BME280;41826;53.246;-6.670;2022-09-17T10:23:27;101755.56;;;13.73;100.00
55916;BME280;41826;53.246;-6.670;2022-09-17T10:25:54;101756.09;;;13.67;100.00
55916;BME280;41826;53.246;-6.670;2022-09-17T10:28:46;101745.25;;;13.99;100.00
55916;BME280;41826;53.246;-6.670;2022-09-17T10:31:13;101747.91;;;13.90;100.00
55916;BME280;41826;53.246;-6.670;2022-09-17T10:33:57;101742.34;;;13.54;100.00
55916;BME280;41826;53.246;-6.670;2022-09-17T10:36:43;101746.25;;;13.98;100.00
55916;BME280;41826;53.246;-6.670;2022-09-17T10:39:32;101743.28;;;13.43;100.00
55916;BME280;41826;53.246;-6.670;2022-09-17T10:44:36;101739.31;;;13.68;100.00
55916;BME280;41826;53.246;-6.670;2022-09-17T10:47:05;101736.50;;;14.18;100.00
55916;BME280;41826;53.246;-6.670;2022-09-17T10:49:43;101740.41;;;14.04;100.00
55916;BME280;41826;53.246;-6.670;2022-09-17T10:52:24;101737.91;;;13.93;100.00
55916;BME280;41826;53.246;-6.670;2022-09-17T10:55:03;101744.13;;;14.12;100.00
55916;BME280;41826;53.246;-6.670;2022-09-17T11:00:17;101740.34;;;14.90;100.00
55916;BME280;41826;53.246;-6.670;2022-09-17T11:11:17;101724.91;;;14.86;100.00
55916;BME280;41826;53.246;-6.670;2022-09-17T11:14:03;101724.25;;;14.84;100.00
55916;BME280;41826;53.246;-6.670;2022-09-17T11:24:45;101710.28;;;13.68;100.00
55916;BME280;41826;53.246;-6.670;2022-09-17T11:30:13;101715.25;;;14.00;100.00
55916;BME280;41826;53.246;-6.670;2022-09-17T11:35:17;101716.91;;;14.01;100.00
55916;BME280;41826;53.246;-6.670;2022-09-17T11:37:57;101707.59;;;14.07;100.00
55916;BME280;41826;53.246;-6.670;2022-09-17T11:40:32;101703.41;;;14.14;100.00
55916;BME280;41826;53.246;-6.670;2022-09-17T11:43:25;101700.16;;;14.40;100.00
55916;BME280;41826;53.246;-6.670;2022-09-17T11:46:13;101698.09;;;14.34;100.00
55916;BME280;41826;53.246;-6.670;2022-09-17T11:49:02;101709.00;;;14.58;100.00
55916;BME280;41826;53.246;-6.670;2022-09-17T11:51:31;101706.59;;;14.74;100.00
55916;BME280;41826;53.246;-6.670;2022-09-17T11:56:35;101703.16;;;15.20;100.00
55916;BME280;41826;53.246;-6.670;2022-09-17T11:59:09;101702.75;;;14.69;100.00
55916;BME280;41826;53.246;-6.670;2022-09-17T12:01:43;101703.44;;;13.36;100.00
55916;BME280;41826;53.246;-6.670;2022-09-17T12:04:42;101700.25;;;13.91;100.00
55916;BME280;41826;53.246;-6.670;2022-09-17T12:12:49;101684.63;;;14.17;100.00
55916;BME280;41826;53.246;-6.670;2022-09-17T12:15:21;101692.81;;;14.71;100.00
55916;BME280;41826;53.246;-6.670;2022-09-17T12:20:31;101693.56;;;15.54;100.00
55916;BME280;41826;53.246;-6.670;2022-09-17T12:23:02;101681.72;;;15.41;100.00
55916;BME280;41826;53.246;-6.670;2022-09-17T12:25:34;101675.53;;;14.86;100.00
55916;BME280;41826;53.246;-6.670;2022-09-17T12:28:11;101673.56;;;14.51;100.00
55916;BME280;41826;53.246;-6.670;2022-09-17T12:31:04;101669.94;;;14.62;100.00
55916;BME280;41826;53.246;-6.670;2022-09-17T12:33:49;101669.31;;;13.44;100.00
55916;BME280;41826;53.246;-6.670;2022-09-17T12:58:05;101656.16;;;15.31;100.00
55916;BME280;41826;53.246;-6.670;2022-09-17T13:00:39;101658.03;;;15.57;100.00
55916;BME280;41826;53.246;-6.670;2022-09-17T13:05:55;101648.66;;;15.80;100.00
55916;BME280;41826;53.246;-6.670;2022-09-17T13:14:18;101638.00;;;15.54;100.00
55916;BME280;41826;53.246;-6.670;2022-09-17T13:21:58;101640.31;;;15.93;100.00
55916;BME280;41826;53.246;-6.670;2022-09-17T13:24:26;101640.19;;;15.23;100.00
55916;BME280;41826;53.246;-6.670;2022-09-17T13:26:56;101647.63;;;15.99;100.00
55916;BME280;41826;53.246;-6.670;2022-09-17T13:34:56;101634.44;;;16.76;100.00
55916;BME280;41826;53.246;-6.670;2022-09-17T13:37:21;101638.25;;;15.43;100.00
55916;BME280;41826;53.246;-6.670;2022-09-17T13:39:49;101632.53;;;14.57;100.00
55916;BME280;41826;53.246;-6.670;2022-09-17T13:47:51;101625.72;;;16.58;100.00
55916;BME280;41826;53.246;-6.670;2022-09-17T13:50:29;101623.69;;;16.09;100.00
55916;BME280;41826;53.246;-6.670;2022-09-17T13:52:58;101623.25;;;16.56;100.00
55916;BME280;41826;53.246;-6.670;2022-09-17T13:55:35;101617.09;;;16.56;100.00
55916;BME280;41826;53.246;-6.670;2022-09-17T13:58:03;101610.72;;;16.75;100.00
55916;BME280;41826;53.246;-6.670;2022-09-17T14:22:15;101584.47;;;17.30;100.00
55916;BME280;41826;53.246;-6.670;2022-09-17T14:32:52;101587.72;;;16.83;100.00
55916;BME280;41826;53.246;-6.670;2022-09-17T14:35:42;101578.81;;;17.33;100.00
55916;BME280;41826;53.246;-6.670;2022-09-17T14:38:13;101580.13;;;17.54;100.00
55916;BME280;41826;53.246;-6.670;2022-09-17T14:40:59;101581.28;;;17.60;100.00
55916;BME280;41826;53.246;-6.670;2022-09-17T14:46:27;101581.28;;;17.60;100.00
55916;BME280;41826;53.246;-6.670;2022-09-17T14:48:53;101578.13;;;17.64;100.00
55916;BME280;41826;53.246;-6.670;2022-09-17T14:53:46;101575.13;;;17.75;100.00
55916;BME280;41826;53.246;-6.670;2022-09-17T14:56:14;101573.66;;;17.73;100.00
55916;BME280;41826;53.246;-6.670;2022-09-17T14:58:44;101571.00;;;17.73;100.00
55916;BME280;41826;53.246;-6.670;2022-09-17T15:01:23;101569.66;;;17.69;100.00
55916;BME280;41826;53.246;-6.670;2022-09-17T15:03:49;101561.53;;;17.70;100.00
55916;BME280;41826;53.246;-6.670;2022-09-17T15:06:21;101563.84;;;17.57;100.00
55916;BME280;41826;53.246;-6.670;2022-09-17T15:08:47;101567.88;;;17.53;100.00
55916;BME280;41826;53.246;-6.670;2022-09-17T15:11:12;101559.91;;;17.45;100.00
55916;BME280;41826;53.246;-6.670;2022-09-17T15:13:49;101555.75;;;17.34;100.00
55916;BME280;41826;53.246;-6.670;2022-09-17T15:26:41;101546.31;;;17.48;100.00
55916;BME280;41826;53.246;-6.670;2022-09-17T15:29:10;101549.44;;;17.51;100.00
55916;BME280;41826;53.246;-6.670;2022-09-17T15:31:37;101546.13;;;17.49;100.00
55916;BME280;41826;53.246;-6.670;2022-09-17T15:34:02;101547.28;;;17.55;100.00
55916;BME280;41826;53.246;-6.670;2022-09-17T15:36:28;101541.28;;;17.69;100.00
55916;BME280;41826;53.246;-6.670;2022-09-17T15:38:55;101546.09;;;17.66;100.00
55916;BME280;41826;53.246;-6.670;2022-09-17T15:41:34;101541.63;;;17.66;100.00
55916;BME280;41826;53.246;-6.670;2022-09-17T15:44:10;101534.31;;;17.68;100.00
55916;BME280;41826;53.246;-6.670;2022-09-17T15:46:37;101543.00;;;17.21;100.00
55916;BME280;41826;53.246;-6.670;2022-09-17T15:49:23;101536.34;;;17.50;100.00
55916;BME280;41826;53.246;-6.670;2022-09-17T15:51:48;101530.19;;;17.49;100.00
55916;BME280;41826;53.246;-6.670;2022-09-17T15:54:29;101531.88;;;17.18;100.00
55916;BME280;41826;53.246;-6.670;2022-09-17T15:56:57;101530.03;;;17.51;100.00
55916;BME280;41826;53.246;-6.670;2022-09-17T15:59:29;101532.34;;;17.54;100.00
55916;BME280;41826;53.246;-6.670;2022-09-17T16:01:57;101527.34;;;16.77;100.00